sensor_id;sensor_type;location;lat;lon;timestamp;P1;durP1;ratioP1;P2;durP2;ratioP2
10162;SDS011;5123;52.556;13.384;2023-09-12T00:01:21;29.77;;;19.27;;
10162;SDS011;5123;52.556;13.384;2023-09-12T00:03:54;23.47;;;18.77;;
10162;SDS011;5123;52.556;13.384;2023-09-12T00:06:31;29.20;;;19.07;;
10162;SDS011;5123;52.556;13.384;2023-09-12T00:09:04;28.67;;;19.40;;
10162;SDS011;5123;52.556;13.384;2023-09-12T00:11:37;26.73;;;19.00;;
10162;SDS011;5123;52.556;13.384;2023-09-12T00:14:10;24.57;;;19.03;;
10162;SDS011;5123;52.556;13.384;2023-09-12T00:16:49;23.70;;;18.43;;
10162;SDS011;5123;52.556;13.384;2023-09-12T00:19:24;28.80;;;20.13;;
10162;SDS011;5123;52.556;13.384;2023-09-12T00:21:58;25.00;;;19.07;;
10162;SDS011;5123;52.556;13.384;2023-09-12T00:24:30;26.27;;;18.53;;
10162;SDS011;5123;52.556;13.384;2023-09-12T00:27:03;23.77;;;19.00;;
10162;SDS011;5123;52.556;13.384;2023-09-12T00:29:37;23.47;;;19.10;;
10162;SDS011;5123;52.556;13.384;2023-09-12T00:32:12;22.97;;;18.47;;
10162;SDS011;5123;52.556;13.384;2023-09-12T00:34:45;20.77;;;18.50;;
10162;SDS011;5123;52.556;13.384;2023-09-12T00:37:19;24.73;;;18.00;;
10162;SDS011;5123;52.556;13.384;2023-09-12T00:39:54;24.03;;;18.60;;
10162;SDS011;5123;52.556;13.384;2023-09-12T00:42:27;21.43;;;18.47;;
10162;SDS011;5123;52.556;13.384;2023-09-12T00:44:59;24.60;;;18.77;;
10162;SDS011;5123;52.556;13.384;2023-09-12T00:47:32;20.27;;;18.10;;
10162;SDS011;5123;52.556;13.384;2023-09-12T00:50:05;22.83;;;18.63;;
10162;SDS011;5123;52.556;13.384;2023-09-12T00:52:39;22.70;;;19.27;;
10162;SDS011;5123;52.556;13.384;2023-09-12T00:55:13;24.00;;;18.67;;
10162;SDS011;5123;52.556;13.384;2023-09-12T00:57:45;21.80;;;17.20;;
10162;SDS011;5123;52.556;13.384;2023-09-12T01:00:18;20.10;;;18.00;;
10162;SDS011;5123;52.556;13.384;2023-09-12T01:02:51;23.27;;;18.87;;
10162;SDS011;5123;52.556;13.384;2023-09-12T01:05:28;21.80;;;17.40;;
10162;SDS011;5123;52.556;13.384;2023-09-12T01:08:02;26.47;;;18.53;;
10162;SDS011;5123;52.556;13.384;2023-09-12T01:10:35;21.77;;;18.43;;
10162;SDS011;5123;52.556;13.384;2023-09-12T01:13:08;23.37;;;18.63;;
10162;SDS011;5123;52.556;13.384;2023-09-12T01:15:43;22.87;;;19.17;;
10162;SDS011;5123;52.556;13.384;2023-09-12T01:18:17;20.00;;;17.90;;
10162;SDS011;5123;52.556;13.384;2023-09-12T01:20:56;20.63;;;18.40;;
10162;SDS011;5123;52.556;13.384;2023-09-12T01:23:36;24.17;;;18.00;;
10162;SDS011;5123;52.556;13.384;2023-09-12T01:26:17;21.27;;;17.27;;
10162;SDS011;5123;52.556;13.384;2023-09-12T01:28:52;20.83;;;16.60;;
10162;SDS011;5123;52.556;13.384;2023-09-12T01:31:30;21.57;;;16.00;;
10162;SDS011;5123;52.556;13.384;2023-09-12T01:34:08;19.57;;;16.90;;
10162;SDS011;5123;52.556;13.384;2023-09-12T01:36:41;20.07;;;17.17;;
10162;SDS011;5123;52.556;13.384;2023-09-12T01:39:14;22.03;;;17.33;;
10162;SDS011;5123;52.556;13.384;2023-09-12T01:41:47;20.57;;;16.47;;
10162;SDS011;5123;52.556;13.384;2023-09-12T01:44:21;20.80;;;16.60;;
10162;SDS011;5123;52.556;13.384;2023-09-12T01:46:55;23.80;;;16.47;;
10162;SDS011;5123;52.556;13.384;2023-09-12T01:49:32;19.73;;;17.00;;
10162;SDS011;5123;52.556;13.384;2023-09-12T01:52:05;21.83;;;17.00;;
10162;SDS011;5123;52.556;13.384;2023-09-12T01:54:38;21.63;;;18.07;;
10162;SDS011;5123;52.556;13.384;2023-09-12T01:57:11;21.43;;;16.67;;
10162;SDS011;5123;52.556;13.384;2023-09-12T01:59:46;20.33;;;15.80;;
10162;SDS011;5123;52.556;13.384;2023-09-12T02:02:19;22.43;;;16.73;;
10162;SDS011;5123;52.556;13.384;2023-09-12T02:04:52;19.90;;;15.50;;
10162;SDS011;5123;52.556;13.384;2023-09-12T02:07:27;24.57;;;16.37;;
10162;SDS011;5123;52.556;13.384;2023-09-12T02:10:16;23.13;;;16.63;;
10162;SDS011;5123;52.556;13.384;2023-09-12T02:12:48;20.80;;;17.23;;
10162;SDS011;5123;52.556;13.384;2023-09-12T02:15:23;22.47;;;17.10;;
10162;SDS011;5123;52.556;13.384;2023-09-12T02:17:55;18.43;;;16.53;;
10162;SDS011;5123;52.556;13.384;2023-09-12T02:20:28;21.23;;;15.83;;
10162;SDS011;5123;52.556;13.384;2023-09-12T02:23:02;19.27;;;16.80;;
10162;SDS011;5123;52.556;13.384;2023-09-12T02:25:35;19.23;;;16.10;;
10162;SDS011;5123;52.556;13.384;2023-09-12T02:28:13;19.13;;;17.03;;
10162;SDS011;5123;52.556;13.384;2023-09-12T02:30:50;20.80;;;16.10;;
10162;SDS011;5123;52.556;13.384;2023-09-12T02:33:22;20.00;;;16.87;;
10162;SDS011;5123;52.556;13.384;2023-09-12T02:35:55;19.27;;;17.27;;
10162;SDS011;5123;52.556;13.384;2023-09-12T02:38:28;23.07;;;17.53;;
10162;SDS011;5123;52.556;13.384;2023-09-12T02:41:03;20.60;;;16.60;;
10162;SDS011;5123;52.556;13.384;2023-09-12T02:43:37;20.03;;;17.50;;
10162;SDS011;5123;52.556;13.384;2023-09-12T02:46:13;23.43;;;16.63;;
10162;SDS011;5123;52.556;13.384;2023-09-12T02:48:48;18.83;;;16.53;;
10162;SDS011;5123;52.556;13.384;2023-09-12T02:51:21;19.20;;;16.30;;
10162;SDS011;5123;52.556;13.384;2023-09-12T02:53:56;19.97;;;15.97;;
10162;SDS011;5123;52.556;13.384;2023-09-12T02:56:28;19.30;;;16.27;;
10162;SDS011;5123;52.556;13.384;2023-09-12T02:59:01;20.47;;;16.00;;
10162;SDS011;5123;52.556;13.384;2023-09-12T03:01:36;21.77;;;15.73;;
10162;SDS011;5123;52.556;13.384;2023-09-12T03:04:09;20.97;;;16.13;;
10162;SDS011;5123;52.556;13.384;2023-09-12T03:06:41;20.30;;;16.43;;
10162;SDS011;5123;52.556;13.384;2023-09-12T03:09:15;19.40;;;16.03;;
10162;SDS011;5123;52.556;13.384;2023-09-12T03:11:48;17.93;;;16.07;;
10162;SDS011;5123;52.556;13.384;2023-09-12T03:14:21;20.30;;;16.97;;
10162;SDS011;5123;52.556;13.384;2023-09-12T03:16:55;22.47;;;16.50;;
10162;SDS011;5123;52.556;13.384;2023-09-12T03:19:29;18.03;;;16.17;;
10162;SDS011;5123;52.556;13.384;2023-09-12T03:22:02;18.20;;;15.90;;
10162;SDS011;5123;52.556;13.384;2023-09-12T03:24:35;19.53;;;16.20;;
10162;SDS011;5123;52.556;13.384;2023-09-12T03:27:07;23.30;;;16.50;;
10162;SDS011;5123;52.556;13.384;2023-09-12T03:29:40;19.07;;;16.30;;
10162;SDS011;5123;52.556;13.384;2023-09-12T03:32:14;22.20;;;16.47;;
10162;SDS011;5123;52.556;13.384;2023-09-12T03:34:47;17.77;;;15.90;;
10162;SDS011;5123;52.556;13.384;2023-09-12T03:37:19;21.03;;;17.20;;
10162;SDS011;5123;52.556;13.384;2023-09-12T03:39:53;18.67;;;16.23;;
10162;SDS011;5123;52.556;13.384;2023-09-12T03:42:25;21.20;;;16.70;;
10162;SDS011;5123;52.556;13.384;2023-09-12T03:45:12;18.07;;;16.17;;
10162;SDS011;5123;52.556;13.384;2023-09-12T03:47:46;20.97;;;16.17;;
10162;SDS011;5123;52.556;13.384;2023-09-12T03:50:19;20.17;;;16.50;;
10162;SDS011;5123;52.556;13.384;2023-09-12T03:52:51;19.33;;;16.53;;
10162;SDS011;5123;52.556;13.384;2023-09-12T03:55:27;22.27;;;17.33;;
10162;SDS011;5123;52.556;13.384;2023-09-12T03:58:00;18.73;;;16.70;;
10162;SDS011;5123;52.556;13.384;2023-09-12T04:00:32;18.43;;;16.43;;
10162;SDS011;5123;52.556;13.384;2023-09-12T04:03:07;20.90;;;16.33;;
10162;SDS011;5123;52.556;13.384;2023-09-12T04:05:40;18.77;;;16.60;;
10162;SDS011;5123;52.556;13.384;2023-09-12T04:08:13;25.67;;;16.73;;
10162;SDS011;5123;52.556;13.384;2023-09-12T04:10:45;21.27;;;17.50;;
10162;SDS011;5123;52.556;13.384;2023-09-12T04:13:18;19.67;;;16.47;;
10162;SDS011;5123;52.556;13.384;2023-09-12T04:15:51;24.43;;;17.30;;
10162;SDS011;5123;52.556;13.384;2023-09-12T04:18:25;22.47;;;16.90;;
10162;SDS011;5123;52.556;13.384;2023-09-12T04:21:00;19.07;;;16.87;;
10162;SDS011;5123;52.556;13.384;2023-09-12T04:23:33;20.43;;;17.27;;
10162;SDS011;5123;52.556;13.384;2023-09-12T04:26:06;21.50;;;15.77;;
10162;SDS011;5123;52.556;13.384;2023-09-12T04:28:41;19.53;;;16.50;;
10162;SDS011;5123;52.556;13.384;2023-09-12T04:31:15;18.43;;;16.43;;
10162;SDS011;5123;52.556;13.384;2023-09-12T04:33:50;24.03;;;16.80;;
10162;SDS011;5123;52.556;13.384;2023-09-12T04:36:22;21.57;;;16.33;;
10162;SDS011;5123;52.556;13.384;2023-09-12T04:38:55;18.70;;;16.70;;
10162;SDS011;5123;52.556;13.384;2023-09-12T04:41:28;18.27;;;15.57;;
10162;SDS011;5123;52.556;13.384;2023-09-12T04:44:00;19.13;;;16.53;;
10162;SDS011;5123;52.556;13.384;2023-09-12T04:46:33;21.63;;;16.80;;
10162;SDS011;5123;52.556;13.384;2023-09-12T04:49:07;20.77;;;16.70;;
10162;SDS011;5123;52.556;13.384;2023-09-12T04:51:40;24.77;;;16.67;;
10162;SDS011;5123;52.556;13.384;2023-09-12T04:54:14;23.17;;;17.27;;
10162;SDS011;5123;52.556;13.384;2023-09-12T04:56:46;28.47;;;15.77;;
10162;SDS011;5123;52.556;13.384;2023-09-12T04:59:19;19.97;;;15.87;;
10162;SDS011;5123;52.556;13.384;2023-09-12T05:01:54;21.53;;;16.00;;
10162;SDS011;5123;52.556;13.384;2023-09-12T05:04:28;29.00;;;16.70;;
10162;SDS011;5123;52.556;13.384;2023-09-12T05:07:01;26.80;;;16.87;;
10162;SDS011;5123;52.556;13.384;2023-09-12T05:09:34;29.23;;;16.77;;
10162;SDS011;5123;52.556;13.384;2023-09-12T05:12:06;18.50;;;16.47;;
10162;SDS011;5123;52.556;13.384;2023-09-12T05:14:39;23.03;;;16.93;;
10162;SDS011;5123;52.556;13.384;2023-09-12T05:17:14;24.43;;;16.73;;
10162;SDS011;5123;52.556;13.384;2023-09-12T05:19:48;22.83;;;16.43;;
10162;SDS011;5123;52.556;13.384;2023-09-12T05:22:21;19.77;;;17.57;;
10162;SDS011;5123;52.556;13.384;2023-09-12T05:24:54;24.77;;;16.50;;
10162;SDS011;5123;52.556;13.384;2023-09-12T05:27:26;28.93;;;16.90;;
10162;SDS011;5123;52.556;13.384;2023-09-12T05:29:59;20.47;;;17.63;;
10162;SDS011;5123;52.556;13.384;2023-09-12T05:32:32;21.47;;;16.27;;
10162;SDS011;5123;52.556;13.384;2023-09-12T05:35:06;21.93;;;17.37;;
10162;SDS011;5123;52.556;13.384;2023-09-12T05:37:51;23.57;;;17.60;;
10162;SDS011;5123;52.556;13.384;2023-09-12T05:40:25;20.50;;;16.67;;
10162;SDS011;5123;52.556;13.384;2023-09-12T05:42:57;22.80;;;17.33;;
10162;SDS011;5123;52.556;13.384;2023-09-12T05:45:30;21.47;;;16.67;;
10162;SDS011;5123;52.556;13.384;2023-09-12T05:48:04;23.63;;;15.40;;
10162;SDS011;5123;52.556;13.384;2023-09-12T05:50:42;19.83;;;16.60;;
10162;SDS011;5123;52.556;13.384;2023-09-12T05:53:15;23.63;;;16.60;;
10162;SDS011;5123;52.556;13.384;2023-09-12T05:55:48;20.43;;;15.57;;
10162;SDS011;5123;52.556;13.384;2023-09-12T05:58:21;21.00;;;15.47;;
10162;SDS011;5123;52.556;13.384;2023-09-12T06:00:54;21.80;;;15.07;;
10162;SDS011;5123;52.556;13.384;2023-09-12T06:03:27;20.13;;;15.17;;
10162;SDS011;5123;52.556;13.384;2023-09-12T06:06:01;19.33;;;15.60;;
10162;SDS011;5123;52.556;13.384;2023-09-12T06:08:34;20.13;;;14.63;;
10162;SDS011;5123;52.556;13.384;2023-09-12T06:11:07;17.77;;;13.83;;
10162;SDS011;5123;52.556;13.384;2023-09-12T06:13:39;21.13;;;13.60;;
10162;SDS011;5123;52.556;13.384;2023-09-12T06:16:12;19.63;;;12.83;;
10162;SDS011;5123;52.556;13.384;2023-09-12T06:18:45;17.47;;;12.57;;
10162;SDS011;5123;52.556;13.384;2023-09-12T06:21:21;21.37;;;12.50;;
10162;SDS011;5123;52.556;13.384;2023-09-12T06:24:07;16.73;;;11.87;;
10162;SDS011;5123;52.556;13.384;2023-09-12T06:26:41;14.37;;;11.70;;
10162;SDS011;5123;52.556;13.384;2023-09-12T06:29:14;14.30;;;11.17;;
10162;SDS011;5123;52.556;13.384;2023-09-12T06:31:47;17.37;;;12.17;;
10162;SDS011;5123;52.556;13.384;2023-09-12T06:34:19;13.63;;;11.63;;
10162;SDS011;5123;52.556;13.384;2023-09-12T06:36:53;17.20;;;11.87;;
10162;SDS011;5123;52.556;13.384;2023-09-12T06:39:26;14.80;;;11.00;;
10162;SDS011;5123;52.556;13.384;2023-09-12T06:41:59;14.23;;;11.40;;
10162;SDS011;5123;52.556;13.384;2023-09-12T06:44:32;13.57;;;10.70;;
10162;SDS011;5123;52.556;13.384;2023-09-12T06:47:05;17.57;;;11.27;;
10162;SDS011;5123;52.556;13.384;2023-09-12T06:49:37;15.40;;;10.80;;
10162;SDS011;5123;52.556;13.384;2023-09-12T06:52:11;17.50;;;11.33;;
10162;SDS011;5123;52.556;13.384;2023-09-12T06:54:44;18.43;;;10.87;;
10162;SDS011;5123;52.556;13.384;2023-09-12T06:57:17;21.23;;;11.37;;
10162;SDS011;5123;52.556;13.384;2023-09-12T06:59:50;16.87;;;10.70;;
10162;SDS011;5123;52.556;13.384;2023-09-12T07:02:23;14.60;;;8.17;;
10162;SDS011;5123;52.556;13.384;2023-09-12T07:04:59;13.53;;;9.07;;
10162;SDS011;5123;52.556;13.384;2023-09-12T07:07:33;13.73;;;9.30;;
10162;SDS011;5123;52.556;13.384;2023-09-12T07:10:06;11.70;;;8.07;;
10162;SDS011;5123;52.556;13.384;2023-09-12T07:12:55;18.27;;;9.03;;
10162;SDS011;5123;52.556;13.384;2023-09-12T07:15:28;12.67;;;8.17;;
10162;SDS011;5123;52.556;13.384;2023-09-12T07:18:00;12.97;;;8.63;;
10162;SDS011;5123;52.556;13.384;2023-09-12T07:20:35;12.13;;;8.90;;
10162;SDS011;5123;52.556;13.384;2023-09-12T07:23:09;12.87;;;8.57;;
10162;SDS011;5123;52.556;13.384;2023-09-12T07:25:45;11.33;;;8.50;;
10162;SDS011;5123;52.556;13.384;2023-09-12T07:28:19;10.17;;;8.80;;
10162;SDS011;5123;52.556;13.384;2023-09-12T07:30:52;13.10;;;8.80;;
10162;SDS011;5123;52.556;13.384;2023-09-12T07:33:26;10.87;;;8.97;;
10162;SDS011;5123;52.556;13.384;2023-09-12T07:35:59;11.57;;;8.67;;
10162;SDS011;5123;52.556;13.384;2023-09-12T07:38:35;13.17;;;8.77;;
10162;SDS011;5123;52.556;13.384;2023-09-12T07:41:09;14.87;;;9.40;;
10162;SDS011;5123;52.556;13.384;2023-09-12T07:43:42;12.07;;;8.77;;
10162;SDS011;5123;52.556;13.384;2023-09-12T07:46:15;15.27;;;9.57;;
10162;SDS011;5123;52.556;13.384;2023-09-12T07:48:48;12.33;;;9.27;;
10162;SDS011;5123;52.556;13.384;2023-09-12T07:51:21;14.03;;;8.93;;
10162;SDS011;5123;52.556;13.384;2023-09-12T07:53:57;13.90;;;8.93;;
10162;SDS011;5123;52.556;13.384;2023-09-12T07:56:29;14.53;;;8.57;;
10162;SDS011;5123;52.556;13.384;2023-09-12T07:59:02;14.33;;;8.80;;
10162;SDS011;5123;52.556;13.384;2023-09-12T08:01:35;15.27;;;8.57;;
10162;SDS011;5123;52.556;13.384;2023-09-12T08:04:10;11.63;;;7.87;;
10162;SDS011;5123;52.556;13.384;2023-09-12T08:06:43;23.33;;;8.23;;
10162;SDS011;5123;52.556;13.384;2023-09-12T08:12:21;14.13;;;7.47;;
10162;SDS011;5123;52.556;13.384;2023-09-12T08:14:54;14.73;;;8.67;;
10162;SDS011;5123;52.556;13.384;2023-09-12T08:17:27;15.17;;;8.43;;
10162;SDS011;5123;52.556;13.384;2023-09-12T08:19:59;15.53;;;8.10;;
10162;SDS011;5123;52.556;13.384;2023-09-12T08:22:32;11.07;;;8.27;;
10162;SDS011;5123;52.556;13.384;2023-09-12T08:25:05;12.60;;;7.90;;
10162;SDS011;5123;52.556;13.384;2023-09-12T08:27:40;13.70;;;8.93;;
10162;SDS011;5123;52.556;13.384;2023-09-12T08:30:13;11.00;;;7.07;;
10162;SDS011;5123;52.556;13.384;2023-09-12T08:32:46;16.03;;;7.70;;
10162;SDS011;5123;52.556;13.384;2023-09-12T08:35:22;11.83;;;7.40;;
10162;SDS011;5123;52.556;13.384;2023-09-12T08:37:56;12.00;;;8.23;;
10162;SDS011;5123;52.556;13.384;2023-09-12T08:40:29;19.13;;;8.33;;
10162;SDS011;5123;52.556;13.384;2023-09-12T08:43:04;14.70;;;8.27;;
10162;SDS011;5123;52.556;13.384;2023-09-12T08:45:37;13.00;;;7.80;;
10162;SDS011;5123;52.556;13.384;2023-09-12T08:48:10;18.77;;;8.03;;
10162;SDS011;5123;52.556;13.384;2023-09-12T08:50:43;16.73;;;8.83;;
10162;SDS011;5123;52.556;13.384;2023-09-12T08:53:18;10.33;;;7.80;;
10162;SDS011;5123;52.556;13.384;2023-09-12T08:55:54;14.90;;;7.53;;
10162;SDS011;5123;52.556;13.384;2023-09-12T08:58:28;11.57;;;7.30;;
10162;SDS011;5123;52.556;13.384;2023-09-12T09:01:03;15.67;;;7.67;;
10162;SDS011;5123;52.556;13.384;2023-09-12T09:03:36;12.47;;;6.90;;
10162;SDS011;5123;52.556;13.384;2023-09-12T09:06:09;14.10;;;7.63;;
10162;SDS011;5123;52.556;13.384;2023-09-12T09:08:43;14.25;;;8.15;;
10162;SDS011;5123;52.556;13.384;2023-09-12T09:11:17;14.33;;;7.93;;
10162;SDS011;5123;52.556;13.384;2023-09-12T09:13:52;10.77;;;7.18;;
10162;SDS011;5123;52.556;13.384;2023-09-12T09:16:24;14.98;;;8.13;;
10162;SDS011;5123;52.556;13.384;2023-09-12T09:19:00;11.07;;;7.30;;
10162;SDS011;5123;52.556;13.384;2023-09-12T09:21:33;17.73;;;7.82;;
10162;SDS011;5123;52.556;13.384;2023-09-12T09:24:06;19.08;;;9.57;;
10162;SDS011;5123;52.556;13.384;2023-09-12T09:26:41;10.68;;;7.03;;
10162;SDS011;5123;52.556;13.384;2023-09-12T09:29:15;10.98;;;7.20;;
10162;SDS011;5123;52.556;13.384;2023-09-12T09:31:48;11.20;;;8.20;;
10162;SDS011;5123;52.556;13.384;2023-09-12T09:34:24;15.82;;;9.43;;
10162;SDS011;5123;52.556;13.384;2023-09-12T09:37:02;15.32;;;8.40;;
10162;SDS011;5123;52.556;13.384;2023-09-12T09:39:35;11.40;;;8.65;;
10162;SDS011;5123;52.556;13.384;2023-09-12T09:42:09;15.15;;;9.48;;
10162;SDS011;5123;52.556;13.384;2023-09-12T09:44:44;13.65;;;9.23;;
10162;SDS011;5123;52.556;13.384;2023-09-12T09:47:16;15.75;;;8.93;;
10162;SDS011;5123;52.556;13.384;2023-09-12T09:49:53;13.00;;;9.35;;
10162;SDS011;5123;52.556;13.384;2023-09-12T09:52:25;16.73;;;10.23;;
10162;SDS011;5123;52.556;13.384;2023-09-12T09:54:59;14.40;;;9.65;;
10162;SDS011;5123;52.556;13.384;2023-09-12T09:57:36;18.38;;;9.18;;
10162;SDS011;5123;52.556;13.384;2023-09-12T10:00:10;14.63;;;9.88;;
10162;SDS011;5123;52.556;13.384;2023-09-12T10:02:46;15.70;;;10.55;;
10162;SDS011;5123;52.556;13.384;2023-09-12T10:05:22;16.02;;;9.13;;
10162;SDS011;5123;52.556;13.384;2023-09-12T10:07:55;16.23;;;9.77;;
10162;SDS011;5123;52.556;13.384;2023-09-12T10:10:29;17.63;;;9.52;;
10162;SDS011;5123;52.556;13.384;2023-09-12T10:13:02;23.80;;;9.40;;
10162;SDS011;5123;52.556;13.384;2023-09-12T10:15:37;18.00;;;9.32;;
10162;SDS011;5123;52.556;13.384;2023-09-12T10:18:13;16.15;;;9.43;;
10162;SDS011;5123;52.556;13.384;2023-09-12T10:21:04;19.70;;;11.88;;
10162;SDS011;5123;52.556;13.384;2023-09-12T10:23:41;16.77;;;12.65;;
10162;SDS011;5123;52.556;13.384;2023-09-12T10:26:22;16.25;;;9.02;;
10162;SDS011;5123;52.556;13.384;2023-09-12T10:28:55;18.95;;;9.30;;
10162;SDS011;5123;52.556;13.384;2023-09-12T10:31:30;13.60;;;9.00;;
10162;SDS011;5123;52.556;13.384;2023-09-12T10:34:04;18.15;;;11.30;;
10162;SDS011;5123;52.556;13.384;2023-09-12T10:36:41;18.88;;;10.43;;
10162;SDS011;5123;52.556;13.384;2023-09-12T10:39:14;13.35;;;10.40;;
10162;SDS011;5123;52.556;13.384;2023-09-12T10:41:47;15.68;;;9.75;;
10162;SDS011;5123;52.556;13.384;2023-09-12T10:44:20;16.60;;;8.82;;
10162;SDS011;5123;52.556;13.384;2023-09-12T10:46:55;14.57;;;8.57;;
10162;SDS011;5123;52.556;13.384;2023-09-12T10:49:28;18.80;;;8.32;;
10162;SDS011;5123;52.556;13.384;2023-09-12T10:52:02;16.35;;;9.07;;
10162;SDS011;5123;52.556;13.384;2023-09-12T10:54:35;16.13;;;8.50;;
10162;SDS011;5123;52.556;13.384;2023-09-12T10:57:09;16.60;;;8.73;;
10162;SDS011;5123;52.556;13.384;2023-09-12T11:02:41;18.75;;;9.30;;
10162;SDS011;5123;52.556;13.384;2023-09-12T11:08:06;14.15;;;9.10;;
10162;SDS011;5123;52.556;13.384;2023-09-12T11:10:38;24.02;;;8.70;;
10162;SDS011;5123;52.556;13.384;2023-09-12T11:13:16;13.18;;;8.75;;
10162;SDS011;5123;52.556;13.384;2023-09-12T11:21:37;10.48;;;6.97;;
10162;SDS011;5123;52.556;13.384;2023-09-12T11:24:09;10.65;;;6.80;;
10162;SDS011;5123;52.556;13.384;2023-09-12T11:26:58;15.68;;;7.60;;
10162;SDS011;5123;52.556;13.384;2023-09-12T11:29:34;7.47;;;6.75;;
10162;SDS011;5123;52.556;13.384;2023-09-12T11:32:07;10.02;;;7.03;;
10162;SDS011;5123;52.556;13.384;2023-09-12T11:34:41;16.10;;;9.65;;
10162;SDS011;5123;52.556;13.384;2023-09-12T11:37:23;9.50;;;7.30;;
10162;SDS011;5123;52.556;13.384;2023-09-12T11:39:56;14.88;;;7.10;;
10162;SDS011;5123;52.556;13.384;2023-09-12T11:42:30;11.88;;;7.15;;
10162;SDS011;5123;52.556;13.384;2023-09-12T11:45:05;8.30;;;6.60;;
10162;SDS011;5123;52.556;13.384;2023-09-12T11:47:41;9.40;;;7.15;;
10162;SDS011;5123;52.556;13.384;2023-09-12T11:50:31;9.80;;;7.70;;
10162;SDS011;5123;52.556;13.384;2023-09-12T11:53:11;10.13;;;7.25;;
10162;SDS011;5123;52.556;13.384;2023-09-12T11:55:46;13.68;;;7.50;;
10162;SDS011;5123;52.556;13.384;2023-09-12T11:58:19;13.45;;;6.78;;
10162;SDS011;5123;52.556;13.384;2023-09-12T12:00:53;15.00;;;7.20;;
10162;SDS011;5123;52.556;13.384;2023-09-12T12:03:27;10.15;;;6.32;;
10162;SDS011;5123;52.556;13.384;2023-09-12T12:06:00;9.50;;;6.20;;
10162;SDS011;5123;52.556;13.384;2023-09-12T12:08:37;19.05;;;16.95;;
10162;SDS011;5123;52.556;13.384;2023-09-12T12:11:10;10.40;;;6.65;;
10162;SDS011;5123;52.556;13.384;2023-09-12T12:13:43;10.18;;;7.05;;
10162;SDS011;5123;52.556;13.384;2023-09-12T12:16:16;11.60;;;6.72;;
10162;SDS011;5123;52.556;13.384;2023-09-12T12:18:49;9.38;;;7.35;;
10162;SDS011;5123;52.556;13.384;2023-09-12T12:21:25;10.57;;;8.65;;
10162;SDS011;5123;52.556;13.384;2023-09-12T12:24:02;9.70;;;6.22;;
10162;SDS011;5123;52.556;13.384;2023-09-12T12:26:37;8.82;;;7.35;;
10162;SDS011;5123;52.556;13.384;2023-09-12T12:29:09;11.15;;;6.70;;
10162;SDS011;5123;52.556;13.384;2023-09-12T12:31:42;10.50;;;6.82;;
10162;SDS011;5123;52.556;13.384;2023-09-12T12:34:15;7.47;;;6.47;;
10162;SDS011;5123;52.556;13.384;2023-09-12T12:37:10;9.50;;;6.05;;
10162;SDS011;5123;52.556;13.384;2023-09-12T12:39:47;15.82;;;7.45;;
10162;SDS011;5123;52.556;13.384;2023-09-12T12:42:19;12.07;;;7.13;;
10162;SDS011;5123;52.556;13.384;2023-09-12T12:44:54;11.18;;;6.68;;
10162;SDS011;5123;52.556;13.384;2023-09-12T12:47:27;9.20;;;6.57;;
10162;SDS011;5123;52.556;13.384;2023-09-12T12:50:00;9.45;;;6.22;;
10162;SDS011;5123;52.556;13.384;2023-09-12T12:52:33;10.02;;;7.03;;
10162;SDS011;5123;52.556;13.384;2023-09-12T12:55:09;12.15;;;7.40;;
10162;SDS011;5123;52.556;13.384;2023-09-12T12:57:43;13.95;;;9.57;;
10162;SDS011;5123;52.556;13.384;2023-09-12T13:00:16;11.02;;;6.03;;
10162;SDS011;5123;52.556;13.384;2023-09-12T13:02:50;9.95;;;6.05;;
10162;SDS011;5123;52.556;13.384;2023-09-12T13:05:24;9.13;;;6.82;;
10162;SDS011;5123;52.556;13.384;2023-09-12T13:07:57;10.73;;;7.03;;
10162;SDS011;5123;52.556;13.384;2023-09-12T13:10:31;10.13;;;6.70;;
10162;SDS011;5123;52.556;13.384;2023-09-12T13:13:04;7.28;;;6.25;;
10162;SDS011;5123;52.556;13.384;2023-09-12T13:15:46;12.43;;;6.75;;
10162;SDS011;5123;52.556;13.384;2023-09-12T13:18:21;10.98;;;7.25;;
10162;SDS011;5123;52.556;13.384;2023-09-12T13:20:56;14.60;;;6.55;;
10162;SDS011;5123;52.556;13.384;2023-09-12T13:23:29;10.93;;;6.55;;
10162;SDS011;5123;52.556;13.384;2023-09-12T13:26:03;9.98;;;6.75;;
10162;SDS011;5123;52.556;13.384;2023-09-12T13:28:36;11.95;;;9.40;;
10162;SDS011;5123;52.556;13.384;2023-09-12T13:31:09;22.23;;;17.42;;
10162;SDS011;5123;52.556;13.384;2023-09-12T13:33:43;18.92;;;15.30;;
10162;SDS011;5123;52.556;13.384;2023-09-12T13:36:16;16.45;;;11.05;;
10162;SDS011;5123;52.556;13.384;2023-09-12T13:38:49;13.25;;;10.30;;
10162;SDS011;5123;52.556;13.384;2023-09-12T13:41:24;42.75;;;33.92;;
10162;SDS011;5123;52.556;13.384;2023-09-12T13:43:57;24.15;;;15.07;;
10162;SDS011;5123;52.556;13.384;2023-09-12T13:46:29;15.02;;;9.98;;
10162;SDS011;5123;52.556;13.384;2023-09-12T13:49:02;18.02;;;9.77;;
10162;SDS011;5123;52.556;13.384;2023-09-12T13:51:35;13.23;;;10.43;;
10162;SDS011;5123;52.556;13.384;2023-09-12T13:54:08;15.18;;;7.45;;
10162;SDS011;5123;52.556;13.384;2023-09-12T13:56:48;11.60;;;7.22;;
10162;SDS011;5123;52.556;13.384;2023-09-12T13:59:23;11.10;;;7.22;;
10162;SDS011;5123;52.556;13.384;2023-09-12T14:02:02;9.45;;;6.22;;
10162;SDS011;5123;52.556;13.384;2023-09-12T14:04:37;10.45;;;6.50;;
10162;SDS011;5123;52.556;13.384;2023-09-12T14:07:12;8.77;;;6.40;;
10162;SDS011;5123;52.556;13.384;2023-09-12T14:09:45;10.88;;;6.47;;
10162;SDS011;5123;52.556;13.384;2023-09-12T14:12:22;10.05;;;6.43;;
10162;SDS011;5123;52.556;13.384;2023-09-12T14:14:59;11.70;;;6.18;;
10162;SDS011;5123;52.556;13.384;2023-09-12T14:17:39;8.38;;;6.05;;
10162;SDS011;5123;52.556;13.384;2023-09-12T14:20:26;16.10;;;6.93;;
10162;SDS011;5123;52.556;13.384;2023-09-12T14:22:59;10.45;;;6.80;;
10162;SDS011;5123;52.556;13.384;2023-09-12T14:25:33;10.98;;;6.20;;
10162;SDS011;5123;52.556;13.384;2023-09-12T14:28:08;15.68;;;10.18;;
10162;SDS011;5123;52.556;13.384;2023-09-12T14:30:42;11.45;;;6.40;;
10162;SDS011;5123;52.556;13.384;2023-09-12T14:33:16;18.40;;;7.57;;
10162;SDS011;5123;52.556;13.384;2023-09-12T14:35:50;7.50;;;6.38;;
10162;SDS011;5123;52.556;13.384;2023-09-12T14:38:22;11.57;;;6.40;;
10162;SDS011;5123;52.556;13.384;2023-09-12T14:40:56;7.15;;;5.68;;
10162;SDS011;5123;52.556;13.384;2023-09-12T14:43:30;7.20;;;4.57;;
10162;SDS011;5123;52.556;13.384;2023-09-12T14:46:03;8.88;;;4.88;;
10162;SDS011;5123;52.556;13.384;2023-09-12T14:48:37;8.25;;;4.38;;
10162;SDS011;5123;52.556;13.384;2023-09-12T14:51:12;7.32;;;4.47;;
10162;SDS011;5123;52.556;13.384;2023-09-12T14:53:57;6.30;;;4.30;;
10162;SDS011;5123;52.556;13.384;2023-09-12T14:56:32;4.15;;;3.75;;
10162;SDS011;5123;52.556;13.384;2023-09-12T14:59:06;5.80;;;3.50;;
10162;SDS011;5123;52.556;13.384;2023-09-12T15:01:39;10.23;;;3.88;;
10162;SDS011;5123;52.556;13.384;2023-09-12T15:04:14;3.28;;;2.97;;
10162;SDS011;5123;52.556;13.384;2023-09-12T15:06:47;5.95;;;5.25;;
10162;SDS011;5123;52.556;13.384;2023-09-12T15:09:20;32.55;;;11.43;;
10162;SDS011;5123;52.556;13.384;2023-09-12T15:11:53;11.25;;;4.85;;
10162;SDS011;5123;52.556;13.384;2023-09-12T15:14:27;15.57;;;5.72;;
10162;SDS011;5123;52.556;13.384;2023-09-12T15:17:02;16.33;;;7.32;;
10162;SDS011;5123;52.556;13.384;2023-09-12T15:19:35;14.23;;;5.78;;
10162;SDS011;5123;52.556;13.384;2023-09-12T15:22:08;7.45;;;4.07;;
10162;SDS011;5123;52.556;13.384;2023-09-12T15:24:41;7.97;;;3.67;;